• Join FlightAware (Why Join?)
  • Login
  • US Flag 
04:21AM EDT


 

Airport Tracker/Info


-or-


 

Live Flight TrackerFlight Track Log ✈ SWA407 ✈ 15-May-2013 ✈ KSAN - KLAS

Flight Track Log - Related Links

Times and Time Zones

All times are in EDT time to prevent confusion due to time zone crossing. See the SWA407 flight status page for this flight to view local times or setup timezone preferences in your user account.

Time Position Orientation Groundspeed Altitude Reporting Facility
EDT Latitude Longitude Course Direction KTS MPH feet Rate Location/Type
01:01AM 32.7856 -117.2861 306° West 195 224 7,500  Level Los Angeles Center
01:02AM 32.8175 -117.3406 305° West 199 229 11,900 3,960 Climbing Los Angeles Center
01:03AM 32.8531 -117.3997 306° West 212 244 15,700 3,300 Climbing Los Angeles Center
01:04AM 32.8969 -117.4689 307° West 250 288 18,700 2,160 Climbing Los Angeles Center
01:05AM 32.9767 -117.5353 325° Northwest 338 389 20,200 2,700 Climbing Los Angeles Center
01:06AM 33.0703 -117.6483 315° West 392 451 24,200 3,300 Climbing Los Angeles Center
01:07AM 33.1539 -117.7447 316° Northwest 410 472 27,000 2,340 Climbing Los Angeles Center
01:08AM 33.2533 -117.8253 326° Northwest 440 506 29,000 960 Climbing Los Angeles Center
01:09AM 33.3808 -117.8217 North 460 529 29,000  Level Los Angeles Center
01:10AM 33.5078 -117.8150 North 459 528 29,000  Level Los Angeles Center
01:11AM 33.6344 -117.8092 North 460 529 29,000  Level Los Angeles Center
01:12AM 33.7614 -117.8033 North 460 529 29,000  Level Los Angeles Center
01:13AM 33.8744 -117.7375 26° Northeast 469 540 29,000  Level Los Angeles Center
01:14AM 33.9947 -117.6183 39° Northeast 470 541 29,000  Level Los Angeles Center
01:15AM 34.0928 -117.5136 41° Northeast 473 544 29,000  Level Los Angeles Center
01:16AM 34.1914 -117.4067 42° Northeast 477 549 29,000  Level Los Angeles Center
01:17AM 34.2906 -117.3017 41° Northeast 476 548 29,000  Level Los Angeles Center
01:18AM 34.3956 -117.1892 41° Northeast 474 545 29,000  Level Los Angeles Center
01:19AM 34.4944 -117.0836 41° Northeast 477 549 29,000  Level Los Angeles Center
01:20AM 34.5928 -116.9769 42° Northeast 478 550 29,000  Level Los Angeles Center
01:22AM 34.6911 -116.8703 42° Northeast 478 550 29,000  Level Los Angeles Center
01:23AM 34.7900 -116.7639 41° Northeast 479 551 29,000 -240 Level Los Angeles Center
01:24AM 34.8881 -116.6564 42° Northeast 476 548 28,600 -840 Descending Los Angeles Center
01:25AM 34.9797 -116.5547 42° Northeast 453 521 27,400 -2,040 Descending Los Angeles Center
01:26AM 35.0783 -116.4311 46° Northeast 426 490 24,500 -1,680 Descending Los Angeles Center
01:27AM 35.1589 -116.3292 46° Northeast 420 483 24,000 -300 Descending Los Angeles Center
01:28AM 35.2397 -116.2294 45° Northeast 415 478 24,000  Level Los Angeles Center
01:29AM 35.3175 -116.1281 47° Northeast 411 473 24,000 -1,260 Level Los Angeles Center
01:30AM 35.3969 -116.0311 45° Northeast 404 465 21,500 -2,460 Descending Los Angeles Center
01:31AM 35.4719 -115.9358 46° Northeast 393 452 19,000 -2,700 Descending Los Angeles Center
01:32AM 35.5558 -115.8267 47° Northeast 389 448 16,100 -2,760 Descending Los Angeles Center
01:32AM 35.6033 -115.7694 44° Northeast 373 429 14,400 -2,400 Descending Los Angeles Center
01:33AM 35.6253 -115.7386 49° Northeast 369 425 13,700 -1,620 Descending Los Angeles Center
01:33AM 35.6558 -115.7025 44° Northeast 358 412 13,100 -720 Descending Los Angeles Center
01:34AM 35.6917 -115.6561 46° Northeast 349 402 13,000 -120 Descending Los Angeles Center
01:34AM 35.7156 -115.6278 44° Northeast 318 366 13,000  Level Los Angeles Center
01:35AM 35.7567 -115.5778 45° Northeast 314 361 13,000  Level Los Angeles Center
01:35AM 35.7839 -115.5742 North 306 352 13,000  Level Los Angeles Center
01:36AM 35.8322 -115.5511 21° North 306 352 13,000  Level Los Angeles Center
01:36AM 35.8597 -115.5258 37° Northeast 312 359 13,000  Level Los Angeles Center
01:37AM 35.9017 -115.4878 36° Northeast 309 356 13,000 -300 Level Los Angeles Center
01:37AM 35.9253 -115.4594 44° Northeast 308 354 12,700 -900 Descending Los Angeles Center
01:38AM 35.9461 -115.4022 66° East 300 345 12,100 -1,260 Descending Los Angeles Center
01:38AM 35.9644 -115.3511 66° East 306 352 11,300 -1,500 Descending Los Angeles Center
01:39AM 35.9792 -115.3092 67° East 298 343 10,600 -1,320 Descending Los Angeles Center
01:39AM 35.9969 -115.2608 66° East 296 341 10,000 -1,200 Descending Los Angeles Center
01:40AM 36.0122 -115.2200 65° Northeast 292 336 9,400 -1,620 Descending Los Angeles Center
01:40AM 36.0147 -115.1539 87° East 276 318 8,200 -1,500 Descending Los Angeles Center
01:41AM 36.0131 -115.1258 94° East 286 329 7,900 -1,020 Descending Los Angeles Center
01:41AM 36.0103 -115.0836 95° East 268 308 7,400 -1,380 Descending Los Angeles Center
01:42AM 36.0069 -115.0225 94° East 261 300 6,500 -1,380 Descending Los Angeles Center
01:42AM 36.0119 -114.9925 78° East 219 252 5,900 -1,500 Descending Los Angeles Center
01:43AM 36.0400 -114.9867 10° North 227 261 5,000 -1,320 Descending Los Angeles Center
01:43AM 36.0631 -114.9889 356° North 189 217 4,600 -900 Descending Los Angeles Center
01:44AM 36.0808 -115.0003 333° Northwest 188 216 4,100 -1,020 Descending Los Angeles Center
01:44AM 36.0786 -115.0211 262° West 140 161 3,600 -780 Descending Los Angeles Center
01:45AM 36.0736 -115.0456 256° West 153 176 3,200 -660 Descending Los Angeles Center
01:45AM 36.0742 -115.0703 272° West 122 140 2,900 -720 Descending Los Angeles Center
01:46AM 36.0728 -115.0925 266° West 129 148 2,500 -540 Descending Los Angeles Center
01:46AM 36.0739 -115.1078 275° West 116 133 2,400 -540 Descending Los Angeles Center
01:47AM 36.0736 -115.1303 269° West 118 136 2,000 -600 Descending Los Angeles Center
01:49AM 36.0667 -115.1500 270° West  Level FlightAware Approximate